createdAt,value
2018-06-24T00:00:39.152Z,13.20
2018-06-24T00:03:10.294Z,13.20
2018-06-24T00:05:41.415Z,13.30
2018-06-24T00:08:12.571Z,13.30
2018-06-24T00:10:43.543Z,13.40
2018-06-24T00:13:14.419Z,13.40
2018-06-24T00:15:45.314Z,13.40
2018-06-24T00:18:16.441Z,13.40
2018-06-24T00:20:47.441Z,13.30
2018-06-24T00:23:18.363Z,13.30
2018-06-24T00:25:49.324Z,13.30
2018-06-24T00:28:20.276Z,13.20
2018-06-24T00:30:51.168Z,13.20
2018-06-24T00:33:22.403Z,13.20
2018-06-24T00:35:53.606Z,13.20
2018-06-24T00:38:24.730Z,13.30
2018-06-24T00:40:55.775Z,13.20
2018-06-24T00:43:27.151Z,13.20
2018-06-24T00:45:58.059Z,13.20
2018-06-24T00:48:29.360Z,13.10
2018-06-24T00:51:00.233Z,13.10
2018-06-24T00:53:31.288Z,13.10
2018-06-24T00:56:02.189Z,13.00
2018-06-24T00:58:33.118Z,13.00
2018-06-24T01:01:04.332Z,13.00
2018-06-24T01:03:35.249Z,13.00
2018-06-24T01:06:06.145Z,12.90
2018-06-24T01:08:37.050Z,12.90
2018-06-24T01:11:08.191Z,12.90
2018-06-24T01:13:39.115Z,12.80
2018-06-24T01:16:10.336Z,12.80
2018-06-24T01:18:41.865Z,12.80
2018-06-24T01:21:13.000Z,12.70
2018-06-24T01:23:43.971Z,12.70
2018-06-24T01:26:14.896Z,12.80
2018-06-24T01:28:45.867Z,12.70
2018-06-24T01:31:17.073Z,12.70
2018-06-24T01:33:47.943Z,12.80
2018-06-24T01:36:18.862Z,12.80
2018-06-24T01:38:50.019Z,12.70
2018-06-24T01:41:21.072Z,12.80
2018-06-24T01:43:51.967Z,12.80
2018-06-24T01:46:23.275Z,12.80
2018-06-24T01:48:54.364Z,12.80
2018-06-24T01:51:25.656Z,12.80
2018-06-24T01:53:56.607Z,12.90
2018-06-24T01:56:27.631Z,12.90
2018-06-24T01:58:58.398Z,12.90
2018-06-24T02:01:29.154Z,13.00
2018-06-24T02:04:00.484Z,13.00
2018-06-24T02:06:31.488Z,13.00
2018-06-24T02:09:02.560Z,13.00
2018-06-24T02:11:33.577Z,13.00
2018-06-24T02:14:04.547Z,13.00
2018-06-24T02:16:35.909Z,13.10
2018-06-24T02:19:07.569Z,13.10
2018-06-24T02:21:39.037Z,13.20
2018-06-24T02:24:09.907Z,13.20
2018-06-24T02:26:40.991Z,13.30
2018-06-24T02:31:42.246Z,13.30
2018-06-24T02:34:13.401Z,13.30
2018-06-24T02:36:44.345Z,13.30
2018-06-24T02:39:15.264Z,13.30
2018-06-24T02:41:46.308Z,13.20
2018-06-24T02:44:17.254Z,13.30
2018-06-24T02:46:48.153Z,13.20
2018-06-24T02:49:19.239Z,13.20
2018-06-24T02:51:50.296Z,13.20
2018-06-24T02:54:21.382Z,13.30
2018-06-24T02:56:52.670Z,13.30
2018-06-24T02:59:23.595Z,13.30
2018-06-24T03:01:54.715Z,13.30
2018-06-24T03:04:25.941Z,13.30
2018-06-24T03:06:56.228Z,13.30
2018-06-24T03:09:27.177Z,13.30
2018-06-24T03:11:58.056Z,13.30
2018-06-24T03:14:29.093Z,13.30
2018-06-24T03:17:00.165Z,13.30
2018-06-24T03:19:31.014Z,13.30
2018-06-24T03:22:02.064Z,13.30
2018-06-24T03:24:33.052Z,13.30
2018-06-24T03:27:04.003Z,13.30
2018-06-24T03:29:34.930Z,13.30
2018-06-24T03:32:06.101Z,13.20
2018-06-24T03:34:37.466Z,13.20
2018-06-24T03:37:08.565Z,13.20
2018-06-24T03:39:39.409Z,13.20
2018-06-24T03:42:10.325Z,13.20
2018-06-24T03:44:41.115Z,13.20
2018-06-24T03:47:12.016Z,13.30
2018-06-24T03:49:43.130Z,13.30
2018-06-24T03:52:14.140Z,13.30
2018-06-24T03:54:45.391Z,13.30
2018-06-24T03:57:16.393Z,13.30
2018-06-24T03:59:47.351Z,13.30
2018-06-24T04:02:18.262Z,13.30
2018-06-24T04:04:49.302Z,13.40
2018-06-24T04:07:20.306Z,13.40
2018-06-24T04:09:51.220Z,13.40
2018-06-24T04:12:22.055Z,13.50
2018-06-24T04:14:52.988Z,13.60
2018-06-24T04:17:23.945Z,13.70
2018-06-24T04:19:54.871Z,13.80
2018-06-24T04:22:25.894Z,13.90
2018-06-24T04:24:56.768Z,14.00
2018-06-24T04:27:27.703Z,14.00
2018-06-24T04:29:58.664Z,14.10
2018-06-24T04:32:29.635Z,14.20
2018-06-24T04:35:00.458Z,14.20
2018-06-24T04:37:31.308Z,14.30
2018-06-24T04:40:02.302Z,14.40
2018-06-24T04:42:33.326Z,14.40
2018-06-24T04:45:04.264Z,14.50
2018-06-24T04:47:35.468Z,14.50
2018-06-24T04:50:06.444Z,14.60
2018-06-24T04:52:37.326Z,14.70
2018-06-24T04:55:08.328Z,14.80
2018-06-24T04:57:39.389Z,14.80
2018-06-24T05:00:10.357Z,14.90
2018-06-24T05:02:41.222Z,15.00
2018-06-24T05:05:12.323Z,15.10
2018-06-24T05:07:43.512Z,15.20
2018-06-24T05:10:14.436Z,15.20
2018-06-24T05:12:45.421Z,15.30
2018-06-24T05:15:16.472Z,15.40
2018-06-24T05:17:47.442Z,15.40
2018-06-24T05:20:18.441Z,15.40
2018-06-24T05:22:49.634Z,15.40
2018-06-24T05:25:20.509Z,15.40
2018-06-24T05:27:51.511Z,15.50
2018-06-24T05:30:22.383Z,15.60
2018-06-24T05:32:53.358Z,15.80
2018-06-24T05:35:24.113Z,15.90
2018-06-24T05:37:55.192Z,16.00
2018-06-24T05:40:26.203Z,16.10
2018-06-24T05:42:56.930Z,16.30
2018-06-24T05:45:27.570Z,16.50
2018-06-24T05:47:58.380Z,16.60
2018-06-24T05:50:29.547Z,16.70
2018-06-24T05:52:59.773Z,16.90
2018-06-24T05:55:30.759Z,17.00
2018-06-24T05:58:01.593Z,17.30
2018-06-24T06:00:32.576Z,17.40
2018-06-24T06:03:03.567Z,17.50
2018-06-24T06:05:34.491Z,17.70
2018-06-24T06:08:05.605Z,17.90
2018-06-24T06:10:36.654Z,18.10
2018-06-24T06:13:07.504Z,18.20
2018-06-24T06:15:38.202Z,18.40
2018-06-24T06:18:08.955Z,18.50
2018-06-24T06:20:39.671Z,18.70
2018-06-24T06:23:10.417Z,18.80
2018-06-24T06:25:41.672Z,18.90
2018-06-24T06:28:12.656Z,19.10
2018-06-24T06:30:43.647Z,19.20
2018-06-24T06:33:29.566Z,19.30
2018-06-24T06:36:00.475Z,19.40
2018-06-24T06:38:31.155Z,19.50
2018-06-24T06:41:02.285Z,19.70
2018-06-24T06:43:32.911Z,19.80
2018-06-24T06:46:04.150Z,20.10
2018-06-24T06:48:35.113Z,20.20
2018-06-24T06:51:06.466Z,20.40
2018-06-24T06:53:37.464Z,20.50
2018-06-24T06:56:08.842Z,20.50
2018-06-24T06:58:39.875Z,20.60
2018-06-24T07:01:10.682Z,20.80
2018-06-24T07:03:41.714Z,20.90
2018-06-24T07:06:12.675Z,20.90
2018-06-24T07:08:43.352Z,21.00
2018-06-24T07:11:14.367Z,21.30
2018-06-24T07:13:45.240Z,21.70
2018-06-24T07:16:15.876Z,22.20
2018-06-24T07:18:46.686Z,22.50
2018-06-24T07:21:17.616Z,22.70
2018-06-24T07:23:48.832Z,22.90
2018-06-24T07:26:19.765Z,22.80
2018-06-24T07:28:50.639Z,22.40
2018-06-24T07:31:21.379Z,22.10
2018-06-24T07:33:52.566Z,22.00
2018-06-24T07:36:23.716Z,22.00
2018-06-24T07:38:54.633Z,21.90
2018-06-24T07:41:25.419Z,21.80
2018-06-24T07:43:56.251Z,21.70
2018-06-24T07:46:27.353Z,21.40
2018-06-24T07:51:28.747Z,21.10
2018-06-24T07:53:59.395Z,21.10
2018-06-24T07:56:30.109Z,21.20
2018-06-24T07:59:00.759Z,21.20
2018-06-24T08:01:31.403Z,21.10
2018-06-24T08:04:02.529Z,21.00
2018-06-24T08:06:33.516Z,21.10
2018-06-24T08:09:05.122Z,21.10
2018-06-24T08:11:36.062Z,21.10
2018-06-24T08:14:06.884Z,21.50
2018-06-24T08:16:38.110Z,21.70
2018-06-24T08:19:09.074Z,22.00
2018-06-24T08:21:41.081Z,21.90
2018-06-24T08:24:12.380Z,21.60
2018-06-24T08:26:43.633Z,21.70
2018-06-24T08:29:14.766Z,21.90
2018-06-24T08:31:45.647Z,21.90
2018-06-24T08:34:16.336Z,22.10
2018-06-24T08:36:46.964Z,22.30
2018-06-24T08:39:17.719Z,22.10
2018-06-24T08:41:48.475Z,22.20
2018-06-24T08:44:19.302Z,22.30
2018-06-24T08:46:50.259Z,22.50
2018-06-24T08:49:21.066Z,22.80
2018-06-24T08:51:51.979Z,23.10
2018-06-24T08:54:22.892Z,23.10
2018-06-24T08:56:53.710Z,22.90
2018-06-24T08:59:24.739Z,22.70
2018-06-24T09:01:56.047Z,22.70
2018-06-24T09:04:27.084Z,23.00
2018-06-24T09:06:58.206Z,23.20
2018-06-24T09:09:29.177Z,22.90
2018-06-24T09:11:59.872Z,22.20
2018-06-24T09:14:30.796Z,21.60
2018-06-24T09:17:01.524Z,21.00
2018-06-24T09:19:32.335Z,20.70
2018-06-24T09:22:03.174Z,20.40
2018-06-24T09:24:33.971Z,20.10
2018-06-24T09:27:04.868Z,20.00
2018-06-24T09:29:36.150Z,20.10
2018-06-24T09:32:07.200Z,20.00
2018-06-24T09:34:37.962Z,20.00
2018-06-24T09:37:09.063Z,19.90
2018-06-24T09:39:40.345Z,19.90
2018-06-24T09:42:11.164Z,19.90
2018-06-24T09:44:42.222Z,20.20
2018-06-24T09:47:13.302Z,20.30
2018-06-24T09:49:44.049Z,20.50
2018-06-24T09:52:14.766Z,20.60
2018-06-24T09:54:45.719Z,20.80
2018-06-24T09:57:16.339Z,20.80
2018-06-24T09:59:47.508Z,20.60
2018-06-24T10:02:18.218Z,20.70
2018-06-24T10:04:49.492Z,21.00
2018-06-24T10:07:20.503Z,21.10
2018-06-24T10:09:51.343Z,21.40
2018-06-24T10:12:22.399Z,21.80
2018-06-24T10:14:53.554Z,22.30
2018-06-24T10:17:24.522Z,22.70
2018-06-24T10:19:55.504Z,22.80
2018-06-24T10:22:26.225Z,23.10
2018-06-24T10:24:56.925Z,23.30
2018-06-24T10:27:27.959Z,23.90
2018-06-24T10:29:58.715Z,24.60
2018-06-24T10:32:29.425Z,25.40
2018-06-24T10:35:00.171Z,26.00
2018-06-24T10:37:31.126Z,26.70
2018-06-24T10:40:02.297Z,27.00
2018-06-24T10:42:33.174Z,27.20
2018-06-24T10:45:04.033Z,27.20
2018-06-24T10:47:34.792Z,27.00
2018-06-24T10:50:05.635Z,26.80
2018-06-24T10:52:36.380Z,26.70
2018-06-24T10:57:37.242Z,25.50
2018-06-24T11:00:08.021Z,25.20
2018-06-24T11:02:38.706Z,24.90
2018-06-24T11:05:09.847Z,24.50
2018-06-24T11:07:40.542Z,24.40
2018-06-24T11:10:11.654Z,24.60
2018-06-24T11:12:42.592Z,24.70
2018-06-24T11:15:13.293Z,25.30
2018-06-24T11:17:44.007Z,26.00
2018-06-24T11:20:14.788Z,26.40
2018-06-24T11:22:45.684Z,26.70
2018-06-24T11:25:16.522Z,26.80
2018-06-24T11:27:47.152Z,26.30
2018-06-24T11:30:18.106Z,25.30
2018-06-24T11:32:49.024Z,24.60
2018-06-24T11:35:19.764Z,24.10
2018-06-24T11:37:50.627Z,23.50
2018-06-24T11:40:21.702Z,23.10
2018-06-24T11:42:52.487Z,23.10
2018-06-24T11:45:23.423Z,23.20
2018-06-24T11:47:54.118Z,23.90
2018-06-24T11:50:24.727Z,25.00
2018-06-24T11:52:55.738Z,25.80
2018-06-24T11:55:26.645Z,26.40
2018-06-24T11:57:57.446Z,25.90
2018-06-24T12:00:28.420Z,25.40
2018-06-24T12:02:59.174Z,24.90
2018-06-24T12:05:29.869Z,24.60
2018-06-24T12:08:00.493Z,24.10
2018-06-24T12:10:31.131Z,23.50
2018-06-24T12:13:02.236Z,23.10
2018-06-24T12:15:33.006Z,22.90
2018-06-24T12:18:04.141Z,23.20
2018-06-24T12:20:37.391Z,23.60
2018-06-24T12:23:08.190Z,24.20
2018-06-24T12:25:38.754Z,24.50
2018-06-24T12:28:09.535Z,24.80
2018-06-24T12:30:40.298Z,24.90
2018-06-24T12:33:10.879Z,25.10
2018-06-24T12:38:11.558Z,25.30
2018-06-24T12:40:42.428Z,25.40
2018-06-24T12:43:13.137Z,25.30
2018-06-24T12:45:43.879Z,25.20
2018-06-24T12:48:14.484Z,25.00
2018-06-24T12:50:45.214Z,24.70
2018-06-24T12:53:15.856Z,24.40
2018-06-24T12:55:47.049Z,24.30
2018-06-24T12:58:17.751Z,24.00
2018-06-24T13:00:48.969Z,24.00
2018-06-24T13:03:20.579Z,24.10
2018-06-24T13:05:51.362Z,24.20
2018-06-24T13:08:22.215Z,24.60
2018-06-24T13:10:52.986Z,24.80
2018-06-24T13:13:23.904Z,24.80
2018-06-24T13:15:54.656Z,24.80
2018-06-24T13:18:25.407Z,24.70
2018-06-24T13:20:56.139Z,24.80
2018-06-24T13:23:26.818Z,24.80
2018-06-24T13:25:57.551Z,25.00
2018-06-24T13:28:28.266Z,25.20
2018-06-24T13:30:58.964Z,24.90
2018-06-24T13:33:30.411Z,24.70
2018-06-24T13:36:01.478Z,24.50
2018-06-24T13:38:32.075Z,24.40
2018-06-24T13:41:02.855Z,24.30
2018-06-24T13:43:33.707Z,24.10
2018-06-24T13:46:04.334Z,23.70
2018-06-24T13:48:35.128Z,23.40
2018-06-24T13:51:05.957Z,23.30
2018-06-24T13:53:36.682Z,23.30
2018-06-24T13:56:07.485Z,23.10
2018-06-24T13:58:38.131Z,23.30
2018-06-24T14:01:09.105Z,23.70
2018-06-24T14:03:40.302Z,24.00
2018-06-24T14:06:11.192Z,24.30
2018-06-24T14:08:42.284Z,24.10
2018-06-24T14:11:12.942Z,24.00
2018-06-24T14:13:43.591Z,23.90
2018-06-24T14:16:14.395Z,23.90
2018-06-24T14:18:45.589Z,24.00
2018-06-24T14:21:16.397Z,23.90
2018-06-24T14:23:47.691Z,23.50
2018-06-24T14:26:18.632Z,23.70
2018-06-24T14:28:49.442Z,23.90
2018-06-24T14:31:20.468Z,24.00
2018-06-24T14:33:51.588Z,24.10
2018-06-24T14:36:22.338Z,24.10
2018-06-24T14:38:53.538Z,24.00
2018-06-24T14:41:24.692Z,23.60
2018-06-24T14:43:55.582Z,23.50
2018-06-24T14:46:26.170Z,23.80
2018-06-24T14:48:57.101Z,24.30
2018-06-24T14:51:27.777Z,24.70
2018-06-24T14:53:58.658Z,24.70
2018-06-24T14:56:29.737Z,25.00
2018-06-24T14:59:00.575Z,25.20
2018-06-24T15:01:31.467Z,25.40
2018-06-24T15:04:02.198Z,25.70
2018-06-24T15:06:32.987Z,25.80
2018-06-24T15:09:03.801Z,25.80
2018-06-24T15:11:34.552Z,25.70
2018-06-24T15:14:05.388Z,25.50
2018-06-24T15:16:36.806Z,25.40
2018-06-24T15:19:08.114Z,25.40
2018-06-24T15:21:39.254Z,25.20
2018-06-24T15:24:10.012Z,25.30
2018-06-24T15:26:40.703Z,25.30
2018-06-24T15:29:11.401Z,25.30
2018-06-24T15:31:42.122Z,25.30
2018-06-24T15:34:12.916Z,25.40
2018-06-24T15:36:43.764Z,25.30
2018-06-24T15:39:14.427Z,25.40
2018-06-24T15:41:45.218Z,25.30
2018-06-24T15:44:15.947Z,24.40
2018-06-24T15:46:46.753Z,24.10
2018-06-24T15:49:17.819Z,24.10
2018-06-24T15:51:48.627Z,24.20
2018-06-24T15:54:19.500Z,24.30
2018-06-24T15:56:50.502Z,24.10
2018-06-24T15:59:21.635Z,23.90
2018-06-24T16:01:52.731Z,23.80
2018-06-24T16:04:23.519Z,23.50
2018-06-24T16:06:54.286Z,23.20
2018-06-24T16:09:25.314Z,23.00
2018-06-24T16:11:55.991Z,23.00
2018-06-24T16:14:26.902Z,22.90
2018-06-24T16:16:58.858Z,23.00
2018-06-24T16:19:29.594Z,23.00
2018-06-24T16:22:00.334Z,23.00
2018-06-24T16:24:31.033Z,22.90
2018-06-24T16:27:01.752Z,22.50
2018-06-24T16:29:32.526Z,22.30
2018-06-24T16:32:03.543Z,22.10
2018-06-24T16:34:34.315Z,21.90
2018-06-24T16:37:05.716Z,21.80
2018-06-24T16:39:36.494Z,21.70
2018-06-24T16:42:07.309Z,21.50
2018-06-24T16:44:38.077Z,21.30
2018-06-24T16:47:08.864Z,21.20
2018-06-24T16:49:39.737Z,21.00
2018-06-24T16:52:10.574Z,20.90
2018-06-24T16:54:41.483Z,20.70
2018-06-24T16:57:12.289Z,20.60
2018-06-24T16:59:43.251Z,20.40
2018-06-24T17:02:14.240Z,20.10
2018-06-24T17:04:45.100Z,20.00
2018-06-24T17:07:15.865Z,20.00
2018-06-24T17:09:46.482Z,20.00
2018-06-24T17:12:17.433Z,20.00
2018-06-24T17:14:48.368Z,20.00
2018-06-24T17:17:19.507Z,20.10
2018-06-24T17:19:50.713Z,20.00
2018-06-24T17:22:21.400Z,20.00
2018-06-24T17:24:52.183Z,19.90
2018-06-24T17:27:23.063Z,19.90
2018-06-24T17:29:53.739Z,19.90
2018-06-24T17:32:24.671Z,19.80
2018-06-24T17:34:55.571Z,19.80
2018-06-24T17:37:26.292Z,19.80
2018-06-24T17:39:57.079Z,19.70
2018-06-24T17:42:27.766Z,19.70
2018-06-24T17:44:58.499Z,19.70
2018-06-24T17:47:29.315Z,19.70
2018-06-24T17:50:00.496Z,19.60
2018-06-24T17:52:31.284Z,19.60
2018-06-24T17:55:02.369Z,19.40
2018-06-24T17:57:33.234Z,19.40
2018-06-24T18:00:04.071Z,19.30
2018-06-24T18:02:34.776Z,19.30
2018-06-24T18:05:05.811Z,19.20
2018-06-24T18:07:37.694Z,19.10
2018-06-24T18:10:08.322Z,19.00
2018-06-24T18:12:39.042Z,18.90
2018-06-24T18:15:10.225Z,18.90
2018-06-24T18:17:41.430Z,18.90
2018-06-24T18:20:12.695Z,18.90
2018-06-24T18:22:43.613Z,18.80
2018-06-24T18:25:14.657Z,18.80
2018-06-24T18:27:45.588Z,18.80
2018-06-24T18:30:16.716Z,18.80
2018-06-24T18:32:48.271Z,18.80
2018-06-24T18:35:19.022Z,18.80
2018-06-24T18:37:50.015Z,18.70
2018-06-24T18:40:20.799Z,18.80
2018-06-24T18:42:51.940Z,18.70
2018-06-24T18:45:23.053Z,18.60
2018-06-24T18:47:54.094Z,18.60
2018-06-24T18:50:25.271Z,18.50
2018-06-24T18:52:56.156Z,18.50
2018-06-24T18:55:27.379Z,18.40
2018-06-24T18:57:58.202Z,18.50
2018-06-24T19:00:29.068Z,18.40
2018-06-24T19:03:00.165Z,18.30
2018-06-24T19:05:31.004Z,18.30
2018-06-24T19:08:01.936Z,18.30
2018-06-24T19:10:33.091Z,18.20
2018-06-24T19:13:04.214Z,18.10
2018-06-24T19:15:35.228Z,18.10
2018-06-24T19:18:06.648Z,18.10
2018-06-24T19:20:37.558Z,18.00
2018-06-24T19:23:08.859Z,17.90
2018-06-24T19:25:39.984Z,18.00
2018-06-24T19:28:10.886Z,17.90
2018-06-24T19:30:41.944Z,17.90
2018-06-24T19:33:17.599Z,17.90
2018-06-24T19:35:48.490Z,17.90
2018-06-24T19:40:49.630Z,17.80
2018-06-24T19:43:20.835Z,17.80
2018-06-24T19:45:51.868Z,17.70
2018-06-24T19:48:23.810Z,17.60
2018-06-24T19:50:54.568Z,17.50
2018-06-24T19:53:25.649Z,17.50
2018-06-24T19:55:56.582Z,17.50
2018-06-24T19:58:27.495Z,17.40
2018-06-24T20:00:58.601Z,17.40
2018-06-24T20:03:29.343Z,17.50
2018-06-24T20:06:00.039Z,17.40
2018-06-24T20:08:30.885Z,17.40
2018-06-24T20:11:01.951Z,17.40
2018-06-24T20:13:32.947Z,17.40
2018-06-24T20:16:03.988Z,17.40
2018-06-24T20:18:34.987Z,17.30
2018-06-24T20:21:06.607Z,17.30
2018-06-24T20:23:37.726Z,17.40
2018-06-24T20:26:08.567Z,17.30
2018-06-24T20:28:39.592Z,17.20
2018-06-24T20:31:10.807Z,17.20
2018-06-24T20:33:41.890Z,17.10
2018-06-24T20:36:13.122Z,17.10
2018-06-24T20:38:44.360Z,17.00
2018-06-24T20:41:15.460Z,17.00
2018-06-24T20:43:46.454Z,16.90
2018-06-24T20:46:17.399Z,16.90
2018-06-24T20:48:48.242Z,16.90
2018-06-24T20:51:19.359Z,16.90
2018-06-24T20:53:50.429Z,16.80
2018-06-24T20:56:21.372Z,16.80
2018-06-24T20:58:52.362Z,16.70
2018-06-24T21:01:23.280Z,16.70
2018-06-24T21:03:54.493Z,16.60
2018-06-24T21:06:25.792Z,16.60
2018-06-24T21:08:56.779Z,16.60
2018-06-24T21:11:27.825Z,16.60
2018-06-24T21:13:59.007Z,16.50
2018-06-24T21:16:29.991Z,16.50
2018-06-24T21:19:01.195Z,16.50
2018-06-24T21:21:33.475Z,16.50
2018-06-24T21:24:04.529Z,16.50
2018-06-24T21:26:35.786Z,16.40
2018-06-24T21:29:06.697Z,16.40
2018-06-24T21:31:37.748Z,16.40
2018-06-24T21:34:08.564Z,16.40
2018-06-24T21:36:39.603Z,16.40
2018-06-24T21:39:10.795Z,16.30
2018-06-24T21:41:41.727Z,16.30
2018-06-24T21:44:12.715Z,16.40
2018-06-24T21:46:43.625Z,16.40
2018-06-24T21:49:14.317Z,16.40
2018-06-24T21:51:45.484Z,16.40
2018-06-24T21:54:16.379Z,16.40
2018-06-24T21:56:47.657Z,16.30
2018-06-24T21:59:18.875Z,16.30
2018-06-24T22:01:49.620Z,16.20
2018-06-24T22:04:20.521Z,16.20
2018-06-24T22:06:52.016Z,16.20
2018-06-24T22:09:23.018Z,16.20
2018-06-24T22:11:55.173Z,16.20
2018-06-24T22:14:26.303Z,16.20
2018-06-24T22:16:58.175Z,16.10
2018-06-24T22:19:29.265Z,16.10
2018-06-24T22:22:00.425Z,16.10
2018-06-24T22:24:31.402Z,16.00
2018-06-24T22:27:02.419Z,16.00
2018-06-24T22:29:33.320Z,16.00
2018-06-24T22:32:04.575Z,16.00
2018-06-24T22:34:35.817Z,16.00
2018-06-24T22:37:06.867Z,16.00
2018-06-24T22:39:37.900Z,15.90
2018-06-24T22:42:08.670Z,16.00
2018-06-24T22:44:39.708Z,15.90
2018-06-24T22:47:10.595Z,15.90
2018-06-24T22:49:41.681Z,15.80
2018-06-24T22:52:12.692Z,15.70
2018-06-24T22:54:43.689Z,15.70
2018-06-24T22:57:14.687Z,15.80
2018-06-24T23:00:24.786Z,15.80
2018-06-24T23:02:55.602Z,15.80
2018-06-24T23:05:26.125Z,15.70
2018-06-24T23:07:57.444Z,15.70
2018-06-24T23:10:28.695Z,15.60
2018-06-24T23:12:59.730Z,15.60
2018-06-24T23:15:30.655Z,15.60
2018-06-24T23:18:01.851Z,15.60
2018-06-24T23:20:32.783Z,15.60
2018-06-24T23:23:03.829Z,15.50
2018-06-24T23:25:35.078Z,15.50
2018-06-24T23:28:06.287Z,15.50
2018-06-24T23:30:37.423Z,15.50
2018-06-24T23:33:08.470Z,15.50
2018-06-24T23:35:39.467Z,15.50
2018-06-24T23:38:10.395Z,15.40
2018-06-24T23:40:41.379Z,15.40
2018-06-24T23:43:12.636Z,15.40
2018-06-24T23:45:43.738Z,15.40
2018-06-24T23:48:20.549Z,15.40
2018-06-24T23:50:51.592Z,15.30
2018-06-24T23:53:22.742Z,15.40
2018-06-24T23:55:53.890Z,15.30
2018-06-24T23:58:24.915Z,15.30
